Time;durP1;ratioP1;P1;durP2;ratioP2;P2;SDS_P1;SDS_P2;PMS_P1;PMS_P2;Temp;Humidity;BMP_temperature;BMP_pressure;BME280_temperature;BME280_humidity;BME280_pressure;Samples;Min_cycle;Max_cycle;Signal;HPM_P1;HPM_P2
2022/06/14 00:00:54;;;;;;;17.15;8.13;;;;;;;;;;4933113;29;20111;-63
2022/06/14 00:03:25;;;;;;;23.40;8.40;;;;;;;;;;4931776;29;20085;-62
2022/06/14 00:05:52;;;;;;;16.73;8.55;;;;;;;;;;4931519;29;20063;-61
2022/06/14 00:08:19;;;;;;;18.05;8.57;;;;;;;;;;4932060;29;20024;-60
2022/06/14 00:10:45;;;;;;;19.13;8.30;;;;;;;;;;4932289;29;20028;-61
2022/06/14 00:13:12;;;;;;;20.33;9.07;;;;;;;;;;4933309;29;20445;-61
2022/06/14 00:15:38;;;;;;;15.35;8.05;;;;;;;;;;4932919;29;20032;-62
2022/06/14 00:18:04;;;;;;;19.35;9.05;;;;;;;;;;4932145;29;20585;-61
2022/06/14 00:20:30;;;;;;;16.70;8.80;;;;;;;;;;4932977;28;20034;-60
2022/06/14 00:22:56;;;;;;;19.60;8.55;;;;;;;;;;4931501;29;20124;-62
2022/06/14 00:25:27;;;;;;;17.60;8.60;;;;;;;;;;4932650;29;20068;-61
2022/06/14 00:27:53;;;;;;;16.55;8.50;;;;;;;;;;4930797;29;20036;-61
2022/06/14 00:30:20;;;;;;;18.75;9.20;;;;;;;;;;4932674;29;20496;-62
2022/06/14 00:32:47;;;;;;;21.60;9.68;;;;;;;;;;4932633;29;20074;-62
2022/06/14 00:35:13;;;;;;;18.52;8.70;;;;;;;;;;4931125;29;20484;-59
2022/06/14 00:37:39;;;;;;;17.77;8.55;;;;;;;;;;4931953;29;20040;-60
2022/06/14 00:40:06;;;;;;;17.98;9.02;;;;;;;;;;4932870;29;20028;-64
2022/06/14 00:42:33;;;;;;;15.75;8.20;;;;;;;;;;4932319;29;20032;-61
2022/06/14 00:45:10;;;;;;;22.67;9.18;;;;;;;;;;4932647;29;20050;-59
2022/06/14 00:47:40;;;;;;;16.63;8.13;;;;;;;;;;4930487;29;20452;-58
2022/06/14 00:50:08;;;;;;;25.77;10.98;;;;;;;;;;4932364;29;20028;-59
2022/06/14 00:52:34;;;;;;;16.90;8.82;;;;;;;;;;4932278;29;20090;-63
2022/06/14 00:55:06;;;;;;;18.52;8.57;;;;;;;;;;4932337;29;20039;-63
2022/06/14 00:57:35;;;;;;;17.25;8.85;;;;;;;;;;4931502;29;20082;-61
2022/06/14 01:00:09;;;;;;;19.27;9.25;;;;;;;;;;4932064;28;20170;-60
2022/06/14 01:02:40;;;;;;;19.40;8.32;;;;;;;;;;4932127;28;20111;-59
2022/06/14 01:05:08;;;;;;;22.33;9.00;;;;;;;;;;4931076;29;20027;-61
2022/06/14 01:07:38;;;;;;;20.00;9.30;;;;;;;;;;4931865;28;20028;-61
2022/06/14 01:10:09;;;;;;;20.17;9.30;;;;;;;;;;4932189;29;20081;-60
2022/06/14 01:12:36;;;;;;;18.65;9.05;;;;;;;;;;4931387;29;20456;-61
2022/06/14 01:15:05;;;;;;;20.75;10.65;;;;;;;;;;4931564;29;20086;-61
2022/06/14 01:17:41;;;;;;;18.50;9.13;;;;;;;;;;4931822;29;20051;-61
2022/06/14 01:20:08;;;;;;;16.92;8.77;;;;;;;;;;4932550;29;20052;-61
2022/06/14 01:22:34;;;;;;;17.77;9.48;;;;;;;;;;4931693;29;20059;-61
2022/06/14 01:25:02;;;;;;;21.98;9.77;;;;;;;;;;4935560;28;20419;-62
2022/06/14 01:27:29;;;;;;;19.75;10.32;;;;;;;;;;4934607;29;20032;-61
2022/06/14 01:29:59;;;;;;;19.88;9.23;;;;;;;;;;4935268;29;20070;-60
2022/06/14 01:32:26;;;;;;;20.08;9.57;;;;;;;;;;4935571;29;20400;-62
2022/06/14 01:34:55;;;;;;;18.10;9.75;;;;;;;;;;4935422;29;20491;-60
2022/06/14 01:37:21;;;;;;;22.92;10.00;;;;;;;;;;4935799;29;20288;-62
2022/06/14 01:39:48;;;;;;;21.60;9.95;;;;;;;;;;4935350;29;20032;-63
2022/06/14 01:42:32;;;;;;;19.75;10.13;;;;;;;;;;4935229;29;20472;-64
2022/06/14 01:45:04;;;;;;;19.90;10.18;;;;;;;;;;4933578;29;20028;-63
2022/06/14 01:47:45;;;;;;;19.23;9.55;;;;;;;;;;4934213;29;20028;-63
2022/06/14 01:53:17;;;;;;;17.38;9.00;;;;;;;;;;4935233;29;20031;-63
2022/06/14 01:56:02;;;;;;;20.40;9.68;;;;;;;;;;4934973;29;20488;-64
2022/06/14 01:58:45;;;;;;;18.98;9.57;;;;;;;;;;4932859;29;20028;-63
2022/06/14 02:01:16;;;;;;;18.50;10.07;;;;;;;;;;4933608;29;20024;-63
2022/06/14 02:06:34;;;;;;;19.02;9.82;;;;;;;;;;4934949;29;20082;-63
2022/06/14 02:09:07;;;;;;;19.48;9.80;;;;;;;;;;4933961;29;20495;-63
2022/06/14 02:11:33;;;;;;;20.95;9.70;;;;;;;;;;4934509;29;20028;-63
2022/06/14 02:14:14;;;;;;;22.50;10.63;;;;;;;;;;4934688;29;20030;-63
2022/06/14 02:16:44;;;;;;;19.27;9.95;;;;;;;;;;4934704;29;20094;-62
2022/06/14 02:19:18;;;;;;;20.90;9.48;;;;;;;;;;4933903;29;20028;-62
2022/06/14 02:21:50;;;;;;;18.60;9.85;;;;;;;;;;4933191;29;20039;-62
2022/06/14 02:24:25;;;;;;;20.20;10.00;;;;;;;;;;4934318;28;20035;-62
2022/06/14 02:26:56;;;;;;;19.85;10.98;;;;;;;;;;4934406;29;20031;-62
2022/06/14 02:29:25;;;;;;;17.13;9.20;;;;;;;;;;4933792;29;20028;-63
2022/06/14 02:31:59;;;;;;;21.38;10.75;;;;;;;;;;4934439;29;20032;-63
2022/06/14 02:34:29;;;;;;;22.48;11.15;;;;;;;;;;4934069;29;20656;-63
2022/06/14 02:37:12;;;;;;;19.27;10.70;;;;;;;;;;4934195;29;20614;-63
2022/06/14 02:39:40;;;;;;;23.42;10.45;;;;;;;;;;4934334;29;20027;-63
2022/06/14 02:42:18;;;;;;;20.70;12.18;;;;;;;;;;4933048;29;20551;-63
2022/06/14 02:44:50;;;;;;;20.33;10.10;;;;;;;;;;4934467;29;20027;-63
2022/06/14 02:47:19;;;;;;;20.45;9.85;;;;;;;;;;4933301;29;20028;-61
2022/06/14 02:50:01;;;;;;;19.60;10.18;;;;;;;;;;4934347;29;20420;-63
2022/06/14 02:52:33;;;;;;;17.35;10.50;;;;;;;;;;4934430;29;20511;-63
2022/06/14 02:55:02;;;;;;;21.02;10.18;;;;;;;;;;4934215;29;20114;-63
2022/06/14 02:57:28;;;;;;;;;;;;;;;;;;4932675;29;20069;-64
2022/06/14 03:00:04;;;;;;;23.27;10.07;;;;;;;;;;4934066;29;19949;-63
2022/06/14 03:02:40;;;;;;;19.05;9.98;;;;;;;;;;4934267;29;20028;-63
2022/06/14 03:05:16;;;;;;;23.20;11.13;;;;;;;;;;4934415;29;20046;-64
2022/06/14 03:07:48;;;;;;;21.05;11.60;;;;;;;;;;4932214;29;20024;-63
2022/06/14 03:10:15;;;;;;;18.27;10.13;;;;;;;;;;4932955;29;20114;-63
2022/06/14 03:12:41;;;;;;;20.80;10.82;;;;;;;;;;4933864;29;20028;-63
2022/06/14 03:15:07;;;;;;;19.58;11.13;;;;;;;;;;4934091;29;20058;-64
2022/06/14 03:17:36;;;;;;;21.90;10.85;;;;;;;;;;4933091;29;20040;-63
2022/06/14 03:20:12;;;;;;;20.20;10.57;;;;;;;;;;4933733;29;20391;-63
2022/06/14 03:22:46;;;;;;;19.42;10.82;;;;;;;;;;4933516;29;20032;-63
2022/06/14 03:25:22;;;;;;;18.17;9.65;;;;;;;;;;4933346;29;20035;-63
2022/06/14 03:27:52;;;;;;;19.17;10.55;;;;;;;;;;4932845;29;20526;-62
2022/06/14 03:30:21;;;;;;;17.90;10.50;;;;;;;;;;4932696;29;20024;-63
2022/06/14 03:32:47;;;;;;;;;;;;;;;;;;4933978;29;20028;-63
2022/06/14 03:35:31;;;;;;;22.13;10.90;;;;;;;;;;4933414;29;19914;-63
2022/06/14 03:38:00;;;;;;;22.63;10.73;;;;;;;;;;4931378;29;20036;-64
2022/06/14 03:40:26;;;;;;;23.48;10.48;;;;;;;;;;4932070;29;20031;-64
2022/06/14 03:42:52;;;;;;;21.15;11.00;;;;;;;;;;4933153;29;20032;-64
2022/06/14 03:45:21;;;;;;;21.33;10.95;;;;;;;;;;4932325;29;20028;-63
2022/06/14 03:47:47;;;;;;;20.67;10.52;;;;;;;;;;4932525;29;20024;-63
2022/06/14 03:50:15;;;;;;;20.95;10.20;;;;;;;;;;4933486;29;20028;-63
2022/06/14 03:52:57;;;;;;;24.95;10.40;;;;;;;;;;4933258;29;20109;-64
2022/06/14 03:55:42;;;;;;;20.38;10.30;;;;;;;;;;4931923;29;20110;-62
2022/06/14 03:58:08;;;;;;;19.40;9.68;;;;;;;;;;4932330;29;20036;-64
2022/06/14 04:00:44;;;;;;;19.13;10.30;;;;;;;;;;4931871;29;20082;-63
2022/06/14 04:03:16;;;;;;;20.13;9.90;;;;;;;;;;4932881;29;20028;-64
2022/06/14 04:05:51;;;;;;;19.55;9.55;;;;;;;;;;4933016;29;20020;-63
2022/06/14 04:08:36;;;;;;;21.77;11.25;;;;;;;;;;4932281;29;20150;-61
2022/06/14 04:11:22;;;;;;;21.10;11.43;;;;;;;;;;4931800;29;20051;-62
2022/06/14 04:13:48;;;;;;;20.92;11.05;;;;;;;;;;4933285;29;20024;-63
2022/06/14 04:16:19;;;;;;;21.08;11.23;;;;;;;;;;4945296;29;20054;-63
2022/06/14 04:19:04;;;;;;;23.15;11.13;;;;;;;;;;4938900;29;20456;-63
2022/06/14 04:21:35;;;;;;;19.08;10.68;;;;;;;;;;4932736;29;20491;-63
2022/06/14 04:24:01;;;;;;;24.80;12.07;;;;;;;;;;4932637;29;20023;-62
2022/06/14 04:26:35;;;;;;;19.27;11.23;;;;;;;;;;4932630;29;20366;-63
2022/06/14 04:29:04;;;;;;;21.25;11.82;;;;;;;;;;4931962;29;20028;-62
2022/06/14 04:31:32;;;;;;;21.85;12.00;;;;;;;;;;4932518;29;20257;-62
2022/06/14 04:34:17;;;;;;;20.02;10.63;;;;;;;;;;4932615;29;20082;-65
2022/06/14 04:36:47;;;;;;;26.95;12.18;;;;;;;;;;4932001;29;20035;-62
2022/06/14 04:39:18;;;;;;;23.58;12.20;;;;;;;;;;4931637;29;20066;-63
2022/06/14 04:41:51;;;;;;;20.63;11.25;;;;;;;;;;4932025;29;20460;-62
2022/06/14 04:44:25;;;;;;;19.83;11.45;;;;;;;;;;4932160;29;20391;-62
2022/06/14 04:46:58;;;;;;;20.73;11.07;;;;;;;;;;4932403;29;20031;-62
2022/06/14 04:49:42;;;;;;;20.63;11.07;;;;;;;;;;4931665;29;20403;-64
2022/06/14 04:52:18;;;;;;;21.17;11.10;;;;;;;;;;4932390;29;20086;-63
2022/06/14 04:54:51;;;;;;;22.75;10.85;;;;;;;;;;4932099;29;20024;-63
2022/06/14 04:57:32;;;;;;;22.23;11.27;;;;;;;;;;4931599;29;20429;-63
2022/06/14 05:00:04;;;;;;;18.60;10.50;;;;;;;;;;4932081;29;20073;-61
2022/06/14 05:03:03;;;;;;;18.83;10.63;;;;;;;;;;4930801;29;20121;-65
2022/06/14 05:05:29;;;;;;;;;;;;;;;;;;4910513;29;20488;-63
2022/06/14 05:08:06;;;;;;;20.25;10.70;;;;;;;;;;4931112;29;20040;-63
2022/06/14 05:10:35;;;;;;;20.98;11.68;;;;;;;;;;4931565;29;20024;-64
2022/06/14 05:13:06;;;;;;;20.20;10.93;;;;;;;;;;4931790;29;20819;-63
2022/06/14 05:15:45;;;;;;;24.35;11.32;;;;;;;;;;4931683;29;20125;-64
2022/06/14 05:18:14;;;;;;;21.13;10.82;;;;;;;;;;4929550;29;20098;-64
2022/06/14 05:20:44;;;;;;;20.50;11.85;;;;;;;;;;4930294;29;20032;-62
2022/06/14 05:23:16;;;;;;;18.73;11.02;;;;;;;;;;4931613;29;20161;-63
2022/06/14 05:26:12;;;;;;;22.45;11.43;;;;;;;;;;4931280;29;20039;-63
2022/06/14 05:28:41;;;;;;;19.30;10.65;;;;;;;;;;4922014;29;20388;-60
2022/06/14 05:31:26;;;;;;;20.50;10.77;;;;;;;;;;4931809;29;20028;-63
2022/06/14 05:34:00;;;;;;;19.80;10.48;;;;;;;;;;4931402;29;20054;-62
2022/06/14 05:36:28;;;;;;;21.13;10.75;;;;;;;;;;4931370;29;20032;-63
2022/06/14 05:38:54;;;;;;;20.02;11.48;;;;;;;;;;4930797;29;20099;-63
2022/06/14 05:41:43;;;;;;;23.75;11.07;;;;;;;;;;4930948;29;20444;-63
2022/06/14 05:44:09;;;;;;;22.67;11.43;;;;;;;;;;4925679;29;20040;-63
2022/06/14 05:46:38;;;;;;;20.13;10.77;;;;;;;;;;4930966;29;20023;-63
2022/06/14 05:49:09;;;;;;;21.45;11.07;;;;;;;;;;4929240;29;20110;-64
2022/06/14 05:51:58;;;;;;;18.23;11.50;;;;;;;;;;4930923;29;20027;-63
2022/06/14 05:54:30;;;;;;;18.90;11.13;;;;;;;;;;4925862;29;20036;-63
2022/06/14 05:57:25;;;;;;;19.95;10.57;;;;;;;;;;4929922;29;20030;-63
2022/06/14 06:00:10;;;;;;;19.70;11.45;;;;;;;;;;4922810;29;20039;-63
2022/06/14 06:02:55;;;;;;;19.33;10.85;;;;;;;;;;4929692;29;20020;-62
2022/06/14 06:05:24;;;;;;;23.40;11.98;;;;;;;;;;4930898;29;20028;-63
2022/06/14 06:07:50;;;;;;;;;;;;;;;;;;4970511;28;20025;-63
2022/06/14 06:10:18;;;;;;;25.92;14.38;;;;;;;;;;4948541;28;19914;-64
2022/06/14 06:12:49;;;;;;;22.30;11.10;;;;;;;;;;4934584;29;20028;-64
2022/06/14 06:15:21;;;;;;;20.30;10.70;;;;;;;;;;4939540;29;20118;-62
2022/06/14 06:17:52;;;;;;;19.30;11.20;;;;;;;;;;4952761;28;20395;-63
2022/06/14 06:20:28;;;;;;;27.40;11.07;;;;;;;;;;4953270;28;20090;-63
2022/06/14 06:23:13;;;;;;;21.90;12.07;;;;;;;;;;4952902;28;20616;-63
2022/06/14 06:25:42;;;;;;;19.98;11.55;;;;;;;;;;4933652;29;20078;-63
2022/06/14 06:28:13;;;;;;;19.70;10.90;;;;;;;;;;4933033;29;20595;-63
2022/06/14 06:30:58;;;;;;;20.27;10.30;;;;;;;;;;4933576;29;20058;-64
2022/06/14 06:33:26;;;;;;;19.73;11.13;;;;;;;;;;4933971;29;20035;-63
2022/06/14 06:36:10;;;;;;;17.90;10.68;;;;;;;;;;4932113;29;20028;-63
2022/06/14 06:39:12;;;;;;;19.77;10.10;;;;;;;;;;4932636;29;20059;-65
2022/06/14 06:41:54;;;;;;;22.33;9.93;;;;;;;;;;4888943;29;20028;-63
2022/06/14 06:44:30;;;;;;;17.27;9.63;;;;;;;;;;4931651;29;20046;-63
2022/06/14 06:47:02;;;;;;;21.20;9.55;;;;;;;;;;4933241;29;20051;-63
2022/06/14 06:49:30;;;;;;;20.70;9.38;;;;;;;;;;4932585;29;20448;-64
2022/06/14 06:52:00;;;;;;;21.17;8.85;;;;;;;;;;4933317;29;20030;-63
2022/06/14 06:54:37;;;;;;;18.60;8.77;;;;;;;;;;4933535;29;20450;-63
2022/06/14 06:57:04;;;;;;;17.77;9.70;;;;;;;;;;4933272;29;20036;-63
2022/06/14 06:59:34;;;;;;;18.65;9.02;;;;;;;;;;4933247;29;20453;-63
2022/06/14 07:02:14;;;;;;;18.42;9.50;;;;;;;;;;4933339;29;20058;-63
2022/06/14 07:07:25;;;;;;;19.45;9.00;;;;;;;;;;4932738;29;20066;-63
2022/06/14 07:09:54;;;;;;;19.10;9.27;;;;;;;;;;4933385;29;20032;-63
2022/06/14 07:12:27;;;;;;;21.75;10.30;;;;;;;;;;4933486;29;20032;-64
2022/06/14 07:14:58;;;;;;;20.05;10.25;;;;;;;;;;4933128;29;20042;-63
2022/06/14 07:17:33;;;;;;;20.08;9.70;;;;;;;;;;4932141;29;20032;-62
2022/06/14 07:20:07;;;;;;;20.02;10.18;;;;;;;;;;4931782;29;20028;-62
2022/06/14 07:22:47;;;;;;;20.83;9.98;;;;;;;;;;4933148;29;20031;-62
2022/06/14 07:25:15;;;;;;;20.52;10.30;;;;;;;;;;4933028;29;20023;-64
2022/06/14 07:28:08;;;;;;;17.52;9.65;;;;;;;;;;4932179;29;20097;-63
2022/06/14 07:30:36;;;;;;;19.17;9.55;;;;;;;;;;4932292;29;20051;-63
2022/06/14 07:33:03;;;;;;;18.45;8.82;;;;;;;;;;4932955;29;20399;-63
2022/06/14 07:38:17;;;;;;;18.33;8.82;;;;;;;;;;4948538;29;20412;-61
2022/06/14 07:40:49;;;;;;;19.00;9.40;;;;;;;;;;4951937;29;20035;-60
2022/06/14 07:43:25;;;;;;;18.98;9.50;;;;;;;;;;4951694;29;20043;-60
2022/06/14 07:45:51;;;;;;;21.10;9.90;;;;;;;;;;4930987;29;20065;-61
2022/06/14 07:48:36;;;;;;;19.55;9.93;;;;;;;;;;4932165;29;20016;-61
2022/06/14 07:51:05;;;;;;;19.42;9.93;;;;;;;;;;4932665;29;20032;-61
2022/06/14 07:53:40;;;;;;;19.20;9.43;;;;;;;;;;4932526;29;20081;-61
2022/06/14 07:56:06;;;;;;;18.85;8.77;;;;;;;;;;4933006;29;20099;-61
2022/06/14 07:58:38;;;;;;;17.55;9.07;;;;;;;;;;4932116;29;20111;-61
2022/06/14 08:01:09;;;;;;;19.10;9.15;;;;;;;;;;4915852;29;20146;-60
2022/06/14 08:03:41;;;;;;;17.23;9.23;;;;;;;;;;4932530;29;20043;-60
2022/06/14 08:06:09;;;;;;;19.27;9.25;;;;;;;;;;4932623;29;20046;-60
2022/06/14 08:08:38;;;;;;;16.58;9.55;;;;;;;;;;4914917;29;20035;-59
2022/06/14 08:11:06;;;;;;;18.50;9.45;;;;;;;;;;4932416;28;20024;-59
2022/06/14 08:13:40;;;;;;;16.70;9.48;;;;;;;;;;4932417;28;20102;-62
2022/06/14 08:16:07;;;;;;;17.27;9.23;;;;;;;;;;4932480;28;20055;-59
2022/06/14 08:18:40;;;;;;;18.17;9.43;;;;;;;;;;4931351;28;20028;-60
2022/06/14 08:21:09;;;;;;;18.90;9.55;;;;;;;;;;4932252;29;20024;-61
2022/06/14 08:23:39;;;;;;;15.88;8.95;;;;;;;;;;4932141;29;20391;-61
2022/06/14 08:26:11;;;;;;;16.60;9.57;;;;;;;;;;4931897;28;20027;-61
2022/06/14 08:28:41;;;;;;;16.83;9.23;;;;;;;;;;4914461;28;20074;-59
2022/06/14 08:31:17;;;;;;;19.05;10.88;;;;;;;;;;4932297;28;20046;-57
2022/06/14 08:34:13;;;;;;;16.65;9.30;;;;;;;;;;4932406;29;20023;-60
2022/06/14 08:36:52;;;;;;;16.52;9.13;;;;;;;;;;4935751;29;20052;-60
2022/06/14 08:39:25;;;;;;;21.95;9.88;;;;;;;;;;4914281;28;20036;-66
2022/06/14 08:41:59;;;;;;;26.10;10.85;;;;;;;;;;4932607;29;20120;-67
2022/06/14 08:44:31;;;;;;;15.18;9.00;;;;;;;;;;4939416;29;20028;-68
2022/06/14 08:47:20;;;;;;;19.27;10.10;;;;;;;;;;4918314;28;20098;-67
2022/06/14 08:49:50;;;;;;;19.35;9.25;;;;;;;;;;4901269;28;20036;-67
2022/06/14 08:52:32;;;;;;;17.15;8.80;;;;;;;;;;4913427;28;20579;-68
2022/06/14 08:55:09;;;;;;;18.17;9.23;;;;;;;;;;4913428;28;20115;-63
2022/06/14 08:57:44;;;;;;;19.58;10.00;;;;;;;;;;4907448;29;20031;-60
2022/06/14 09:00:30;;;;;;;18.02;9.27;;;;;;;;;;4573737;28;10000283;-60
2022/06/14 09:03:02;;;;;;;17.02;9.80;;;;;;;;;;4954219;28;20066;-64
2022/06/14 09:05:37;;;;;;;17.65;9.65;;;;;;;;;;4915992;29;20118;-61
2022/06/14 09:08:12;;;;;;;16.08;9.20;;;;;;;;;;4910997;28;20077;-62
2022/06/14 09:10:50;;;;;;;18.98;9.68;;;;;;;;;;4915268;29;20234;-62
2022/06/14 09:13:16;;;;;;;17.73;9.32;;;;;;;;;;4892384;29;20063;-63
2022/06/14 09:16:01;;;;;;;18.90;9.65;;;;;;;;;;4909390;28;20032;-62
2022/06/14 09:18:27;;;;;;;18.55;9.60;;;;;;;;;;4916402;29;20077;-61
2022/06/14 09:20:56;;;;;;;17.35;9.27;;;;;;;;;;4928378;29;20032;-58
2022/06/14 09:23:31;;;;;;;16.45;9.10;;;;;;;;;;4929948;29;20039;-65
2022/06/14 09:26:17;;;;;;;16.15;9.23;;;;;;;;;;4931870;29;20024;-66
2022/06/14 09:28:43;;;;;;;16.77;9.55;;;;;;;;;;4930894;29;20047;-65
2022/06/14 09:31:09;;;;;;;17.92;8.77;;;;;;;;;;4931299;29;20059;-65
2022/06/14 09:33:37;;;;;;;16.17;9.50;;;;;;;;;;4931814;29;20543;-63
2022/06/14 09:36:13;;;;;;;17.02;9.40;;;;;;;;;;4919292;29;20025;-63
2022/06/14 09:39:01;;;;;;;18.70;9.52;;;;;;;;;;4918264;29;20048;-65
2022/06/14 09:41:36;;;;;;;18.38;9.45;;;;;;;;;;4912422;28;20028;-60
2022/06/14 09:44:08;;;;;;;16.90;9.10;;;;;;;;;;4913660;28;20035;-62
2022/06/14 09:46:49;;;;;;;16.65;9.13;;;;;;;;;;4916775;28;20103;-63
2022/06/14 09:49:30;;;;;;;15.43;9.30;;;;;;;;;;4898783;28;20384;-65
2022/06/14 09:52:09;;;;;;;19.25;10.65;;;;;;;;;;4898979;28;20032;-64
2022/06/14 09:54:49;;;;;;;16.25;9.27;;;;;;;;;;4898827;28;20082;-65
2022/06/14 09:57:35;;;;;;;17.67;9.60;;;;;;;;;;4915933;28;20103;-64
2022/06/14 10:00:13;;;;;;;16.25;9.52;;;;;;;;;;4916278;28;20028;-65
2022/06/14 10:02:54;;;;;;;15.70;9.57;;;;;;;;;;4931726;28;20058;-64
2022/06/14 10:05:26;;;;;;;19.27;9.88;;;;;;;;;;4934629;28;20590;-64
2022/06/14 10:07:52;;;;;;;16.83;9.43;;;;;;;;;;4933644;28;20027;-64
2022/06/14 10:10:35;;;;;;;19.55;9.75;;;;;;;;;;4916791;29;20077;-64
2022/06/14 10:13:16;;;;;;;18.98;10.05;;;;;;;;;;4934735;28;20058;-64
2022/06/14 10:15:52;;;;;;;16.95;9.93;;;;;;;;;;4934518;28;20028;-64
2022/06/14 10:18:21;;;;;;;19.73;10.50;;;;;;;;;;4916459;28;20047;-65
2022/06/14 10:20:51;;;;;;;18.10;9.95;;;;;;;;;;4917530;28;20392;-64
2022/06/14 10:23:20;;;;;;;16.30;9.60;;;;;;;;;;4916942;28;20611;-63
2022/06/14 10:29:04;;;;;;;16.67;10.40;;;;;;;;;;4933558;29;20046;-64
2022/06/14 10:31:33;;;;;;;18.25;10.32;;;;;;;;;;4934260;29;20027;-65
2022/06/14 10:34:03;;;;;;;17.90;10.20;;;;;;;;;;4917045;28;20150;-64
2022/06/14 10:36:32;;;;;;;17.52;9.77;;;;;;;;;;4933791;28;20130;-64
2022/06/14 10:39:10;;;;;;;16.98;9.60;;;;;;;;;;4916292;28;20391;-64
2022/06/14 10:41:46;;;;;;;18.67;9.85;;;;;;;;;;4933467;29;20410;-62
2022/06/14 10:44:21;;;;;;;17.63;9.77;;;;;;;;;;4916350;28;20032;-64
2022/06/14 10:46:50;;;;;;;16.30;9.70;;;;;;;;;;4933611;28;20387;-64
2022/06/14 10:49:22;;;;;;;16.63;9.50;;;;;;;;;;4933107;28;20028;-63
2022/06/14 10:51:51;;;;;;;15.30;10.00;;;;;;;;;;4933736;29;20031;-62
2022/06/14 10:54:20;;;;;;;16.98;9.25;;;;;;;;;;4933350;29;20051;-62
2022/06/14 10:56:56;;;;;;;18.10;10.65;;;;;;;;;;4932720;28;20523;-61
2022/06/14 10:59:42;;;;;;;18.85;10.00;;;;;;;;;;4932574;28;20039;-62
2022/06/14 11:02:20;;;;;;;16.38;9.90;;;;;;;;;;4933234;28;20043;-61
2022/06/14 11:04:58;;;;;;;18.88;9.88;;;;;;;;;;4916537;28;20028;-62
2022/06/14 11:07:33;;;;;;;18.08;10.20;;;;;;;;;;4932579;28;20548;-61
2022/06/14 11:10:11;;;;;;;18.88;9.95;;;;;;;;;;4933402;28;20426;-62
2022/06/14 11:12:56;;;;;;;17.55;10.18;;;;;;;;;;4933697;28;20475;-63
2022/06/14 11:15:22;;;;;;;19.08;10.05;;;;;;;;;;4933359;28;20127;-62
2022/06/14 11:17:48;;;;;;;30.73;11.85;;;;;;;;;;4932602;28;20052;-63
2022/06/14 11:20:19;;;;;;;18.12;9.54;;;;;;;;;;4769598;28;10000581;-61
2022/06/14 11:22:59;;;;;;;18.42;10.05;;;;;;;;;;4573902;28;9999866;-61
2022/06/14 11:25:42;;;;;;;18.90;10.35;;;;;;;;;;4931319;29;20052;-61
2022/06/14 11:28:08;;;;;;;18.85;10.98;;;;;;;;;;4932388;29;20051;-58
2022/06/14 11:30:56;;;;;;;19.23;10.88;;;;;;;;;;4933094;29;20027;-61
2022/06/14 11:33:43;;;;;;;15.20;10.30;;;;;;;;;;4933020;29;20395;-60
2022/06/14 11:36:15;;;;;;;19.35;10.13;;;;;;;;;;4932449;29;20059;-60
2022/06/14 11:38:41;;;;;;;18.48;10.23;;;;;;;;;;4931666;29;20059;-61
2022/06/14 11:41:08;;;;;;;17.40;10.57;;;;;;;;;;4915388;29;20032;-61
2022/06/14 11:43:59;;;;;;;19.58;11.48;;;;;;;;;;4932647;29;20028;-59
2022/06/14 11:46:31;;;;;;;17.92;10.65;;;;;;;;;;4932750;29;20506;-60
2022/06/14 11:49:01;;;;;;;17.52;10.73;;;;;;;;;;4914829;29;20027;-61
2022/06/14 11:51:46;;;;;;;18.30;10.70;;;;;;;;;;4932696;29;20034;-61
2022/06/14 11:54:26;;;;;;;18.40;11.32;;;;;;;;;;4932375;29;20032;-59
2022/06/14 11:56:55;;;;;;;16.42;10.90;;;23.50;96.20;;;;;;4932048;29;20456;-59
2022/06/14 11:59:49;;;;;;;19.92;11.07;;;28.40;72.80;;;;;;4931324;28;20031;-57
2022/06/14 12:02:33;;;;;;;16.52;10.68;;;28.60;71.40;;;;;;4932446;29;20087;-62
2022/06/14 12:05:21;;;;;;;16.55;10.45;;;27.20;70.80;;;;;;4932215;29;20047;-60
2022/06/14 12:08:03;;;;;;;18.42;10.57;;;28.40;69.40;;;;;;4930638;29;20484;-61
2022/06/14 12:10:41;;;;;;;19.60;11.27;;;27.00;70.70;;;;;;4932322;29;20115;-61
2022/06/14 12:13:35;;;;;;;17.98;11.38;;;27.20;70.20;;;;;;4914842;28;20439;-61
2022/06/14 12:16:06;;;;;;;15.65;10.50;;;28.00;73.10;;;;;;4932267;28;20032;-58
2022/06/14 12:18:35;;;;;;;19.58;11.57;;;28.40;68.80;;;;;;4931688;29;20107;-61
2022/06/14 12:21:26;;;;;;;17.73;12.43;;;29.00;68.50;;;;;;4914743;29;20038;-61
2022/06/14 12:23:55;;;;;;;19.48;11.52;;;;;;;;;;4914963;29;20112;-61
2022/06/14 12:26:37;;;;;;;17.33;11.45;;;;;;;;;;4931760;28;20020;-61
2022/06/14 12:29:25;;;;;;;18.90;11.50;;;;;;;;;;4931140;28;20024;-59
2022/06/14 12:32:03;;;;;;;18.75;12.23;;;;;;;;;;4932316;28;20024;-60
2022/06/14 12:34:36;;;;;;;18.63;11.50;;;;;;;;;;4931863;29;20024;-57
2022/06/14 12:37:15;;;;;;;16.80;11.32;;;;;;;;;;4931512;29;20040;-58
2022/06/14 12:39:45;;;;;;;18.38;11.82;;;;;;;;;;4931859;29;20059;-61
2022/06/14 12:42:35;;;;;;;19.30;11.40;;;;;;;;;;4931928;28;20031;-60
2022/06/14 12:45:04;;;;;;;17.95;11.68;;;;;;;;;;4929953;28;20033;-57
2022/06/14 12:47:42;;;;;;;18.38;11.48;;;;;;;;;;4912220;28;20039;-57
2022/06/14 12:50:21;;;;;;;19.38;12.30;;;;;;;;;;4912682;28;20031;-60
2022/06/14 12:52:50;;;;;;;19.25;12.60;;;;;;;;;;4930032;29;20078;-54
2022/06/14 12:55:25;;;;;;;18.83;11.90;;;;;;;;;;4248602;28;9999956;-60
2022/06/14 12:57:51;;;;;;;18.35;13.30;;;;;;;;;;4909062;29;20372;-59
2022/06/14 13:00:24;;;;;;;17.10;12.77;;;;;;;;;;4928445;29;20024;-60
2022/06/14 13:02:59;;;;;;;18.58;13.40;;;;;;;;;;4928089;29;20094;-56
2022/06/14 13:05:28;;;;;;;16.95;12.07;;;;;;;;;;4927956;29;20032;-61
2022/06/14 13:07:54;;;;;;;23.40;19.30;;;;;;;;;;4926200;29;20519;-60
2022/06/14 13:10:40;;;;;;;18.35;11.90;;;;;;;;;;4913093;28;20028;-59
2022/06/14 13:13:06;;;;;;;18.00;11.90;;;;;;;;;;4913689;29;20090;-57
2022/06/14 13:15:55;;;;;;;19.70;12.38;;;;;;;;;;4913023;28;20520;-60
2022/06/14 13:18:27;;;;;;;19.08;12.13;;;;;;;;;;4913314;29;20130;-58
2022/06/14 13:21:02;;;;;;;19.25;12.40;;;;;;;;;;4935012;28;20027;-57
2022/06/14 13:23:28;;;;;;;20.60;14.90;;;;;;;;;;4917597;28;20036;-62
2022/06/14 13:25:57;;;;;;;16.17;11.93;;;;;;;;;;4918608;28;20040;-58
2022/06/14 13:28:36;;;;;;;18.45;12.63;;;;;;;;;;4980406;28;20029;-61
2022/06/14 13:31:26;;;;;;;20.80;15.23;;;;;;;;;;4915532;28;20028;-61
2022/06/14 13:33:54;;;;;;;20.80;14.93;;;;;;;;;;4932038;28;20035;-58
2022/06/14 13:36:20;;;;;;;16.85;12.40;;;;;;;;;;4935606;29;20480;-62
2022/06/14 13:38:46;;;;;;;17.80;12.38;;;;;;;;;;4928966;28;20028;-62
2022/06/14 13:41:19;;;;;;;19.98;12.88;;;;;;;;;;4933694;29;20098;-62
2022/06/14 13:43:58;;;;;;;19.75;12.00;;;;;;;;;;4934847;29;20028;-61
2022/06/14 13:46:31;;;;;;;18.83;13.07;;;;;;;;;;4913072;28;20503;-59
2022/06/14 13:49:16;;;;;;;19.23;12.57;;;;;;;;;;4916808;28;20042;-63
2022/06/14 13:51:52;;;;;;;20.15;13.35;;;;;;;;;;4920642;28;20394;-60
2022/06/14 13:54:22;;;;;;;19.00;11.88;;;;;;;;;;4915917;28;20043;-62
2022/06/14 13:56:57;;;;;;;17.75;11.35;;;;;;;;;;4915731;28;20024;-61
2022/06/14 13:59:28;;;;;;;18.75;11.48;;;;;;;;;;4576279;28;10000491;-62
2022/06/14 14:01:57;;;;;;;18.20;12.85;;;;;;;;;;4931294;29;20024;-62
2022/06/14 14:05:09;;;;;;;16.75;12.23;;;29.10;68.60;;;;;;4931599;28;20050;-62
2022/06/14 14:07:54;;;;;;;18.45;12.07;;;;;;;;;;4920651;29;20040;-59
2022/06/14 14:10:19;;;;;;;18.60;11.68;;;;;;;;;;4931430;28;20027;-62
2022/06/14 14:12:49;;;;;;;19.40;12.48;;;;;;;;;;4914053;28;20042;-63
2022/06/14 14:15:23;;;;;;;16.92;11.30;;;;;;;;;;4931559;29;20048;-62
2022/06/14 14:17:51;;;;;;;17.83;11.90;;;35.30;49.50;;;;;;4930146;28;20058;-63
2022/06/14 14:20:39;;;;;;;16.75;11.10;;;34.30;48.40;;;;;;4931613;28;20404;-62
2022/06/14 14:23:10;;;;;;;;;;;34.20;47.50;;;;;;4914113;29;20056;-63
2022/06/14 14:25:46;;;;;;;20.88;12.25;;;34.00;49.00;;;;;;4931330;29;19907;-62
2022/06/14 14:28:11;;;;;;;17.70;11.68;;;34.60;49.30;;;;;;4929176;29;20066;-62
2022/06/14 14:30:59;;;;;;;17.63;11.80;;;34.70;49.00;;;;;;4930464;29;20031;-62
2022/06/14 14:33:49;;;;;;;17.52;11.90;;;36.10;49.20;;;;;;4931146;28;20028;-62
2022/06/14 14:36:33;;;;;;;18.20;12.27;;;35.80;48.60;;;;;;4909392;29;20399;-63
2022/06/14 14:39:23;;;;;;;21.23;12.55;;;36.20;47.90;;;;;;4912237;28;20474;-62
2022/06/14 14:42:18;;;;;;;18.92;12.00;;;35.40;47.90;;;;;;4912868;29;20495;-62
2022/06/14 14:44:47;;;;;;;17.83;12.00;;;;;;;;;;4914226;28;20105;-63
2022/06/14 14:47:13;;;;;;;20.00;12.77;;;;;;;;;;4930212;29;20028;-62
2022/06/14 14:49:45;;;;;;;17.98;12.45;;;;;;;;;;4931306;28;20120;-63
2022/06/14 14:52:40;;;;;;;18.02;12.70;;;36.10;48.50;;;;;;4913983;28;20046;-63
2022/06/14 14:55:25;;;;;;;22.40;13.93;;;;;;;;;;4925912;29;20046;-61
2022/06/14 14:57:56;;;;;;;19.73;14.38;;;;;;;;;;4926964;29;20758;-62
2022/06/14 15:00:22;;;;;;;17.15;11.75;;;;;;;;;;4929919;29;20035;-60
2022/06/14 15:05:45;;;;;;;23.60;12.50;;;;;;;;;;4925752;28;20043;-62
2022/06/14 15:08:11;;;;;;;19.98;13.32;;;;;;;;;;4930623;28;20038;-61
2022/06/14 15:10:53;;;;;;;18.80;12.75;;;;;;;;;;4917392;28;20024;-61
2022/06/14 15:13:34;;;;;;;20.35;13.90;;;;;;;;;;4913456;29;20024;-62